Check out our new PWSWeather beta!
PWSweather.com
Personal Weather Stations
Station Observations
KNCCARY10
Cary Park, Cary, NC 27519

Cary ParkCary, NC 27519

Lat: 35.81, Lon: -78.92

Elevation: 430

Station Type:

http://260servers.net/weather/index.htm

Latest ConditionsUpdated 1:45:01 PM EST Monday, Feb 24, 2020
Currently Today's Max Today's Min Today's Average
Temperature 48.9°F9.4°C 54.0°F12.2°C 47.2°F8.4°C 49.5°F9.7°C
Dew Point 45.2°F7.3°C 45.2°F7.3°C 31.5°F-0.3°C 35.9°F2.2°C
Winds Calm Calm 6.0 mph -9.7 kmh - - 0.5 mph 0.8 kmh
Wind Gusts 4.0 mph6.4 kmh 12.0 mph19.3 kmh - -
Humidity 87% 87% 50% 60%
Pressure 30.12 in1020.0 mb 30.20 in1022.7 mb 30.12 in1020.0 mb -
Precipitation - 0.03 in0.8 mm - -
Hour Temp Dew Point Humidity Winds Wind Gusts Pressure Precip Precip Rate Daily Precip Total
01:45 PM 48.9°F9.4°C 45.2°F7.3°C 87% Calm Calm 4.0 mph6.4 kmh 30.12 in1020.0 mb 0.03 in0.8 mm 0.04 in1.0 mm 0.03 in0.8 mm
01:30 PM 49.3°F9.6°C 44.4°F6.9°C 83% Calm Calm 4.0 mph6.4 kmh 30.12 in1020.0 mb 0.02 in0.5 mm 0.04 in1.0 mm 0.02 in0.5 mm
01:15 PM 49.8°F9.9°C 44.8°F7.1°C 83% Calm Calm 4.0 mph6.4 kmh 30.13 in1020.3 mb 0.01 in0.3 mm 0.04 in1.0 mm 0.01 in0.3 mm
01:00 PM 50.6°F10.3°C 43.7°F6.5°C 77% Calm Calm 8.0 mph12.9 kmh 30.14 in1020.7 mb 0.00 in0.0 mm 0.00 in0.0 mm 0.00 in0.0 mm
12:45 PM 50.9°F10.5°C 43.9°F6.6°C 77% 3.0 mph E4.8 kmh E 12.0 mph19.3 kmh 30.15 in1021.0 mb 0.00 in0.0 mm 0.00 in0.0 mm 0.00 in0.0 mm
12:30 PM 51.3°F10.7°C 42.6°F5.9°C 72% 6.0 mph E9.7 kmh E 12.0 mph19.3 kmh 30.15 in1021.0 mb 0.00 in0.0 mm 0.00 in0.0 mm 0.00 in0.0 mm
12:15 PM 52.3°F11.3°C 42.0°F5.6°C 68% Calm Calm 8.0 mph12.9 kmh 30.16 in1021.3 mb 0.00 in0.0 mm 0.00 in0.0 mm 0.00 in0.0 mm
12:00 PM 52.7°F11.5°C 41.7°F5.4°C 66% Calm Calm 6.0 mph9.7 kmh 30.16 in1021.3 mb 0.00 in0.0 mm 0.00 in0.0 mm 0.00 in0.0 mm
11:45 AM 52.7°F11.5°C 40.5°F4.7°C 63% Calm Calm 6.0 mph9.7 kmh 30.15 in1021.0 mb 0.00 in0.0 mm 0.00 in0.0 mm 0.00 in0.0 mm
11:30 AM 53.0°F11.7°C 40.7°F4.8°C 63% Calm Calm 4.0 mph6.4 kmh 30.16 in1021.3 mb 0.00 in0.0 mm 0.00 in0.0 mm 0.00 in0.0 mm
11:15 AM 53.5°F11.9°C 38.6°F3.7°C 57% 6.0 mph E9.7 kmh E 12.0 mph19.3 kmh 30.17 in1021.7 mb 0.00 in0.0 mm 0.00 in0.0 mm 0.00 in0.0 mm
11:00 AM 54.0°F12.2°C 38.6°F3.7°C 56% Calm Calm 4.0 mph6.4 kmh 30.15 in1021.0 mb 0.00 in0.0 mm 0.00 in0.0 mm 0.00 in0.0 mm
10:45 AM 53.9°F12.2°C 38.6°F3.7°C 56% Calm Calm 2.0 mph3.2 kmh 30.16 in1021.3 mb 0.00 in0.0 mm 0.00 in0.0 mm 0.00 in0.0 mm
10:30 AM 53.3°F11.8°C 38.0°F3.3°C 56% Calm Calm 10.0 mph16.1 kmh 30.16 in1021.3 mb 0.00 in0.0 mm 0.00 in0.0 mm 0.00 in0.0 mm
10:15 AM 52.4°F11.3°C 37.2°F2.9°C 56% Calm Calm 2.0 mph3.2 kmh 30.15 in1021.0 mb 0.00 in0.0 mm 0.00 in0.0 mm 0.00 in0.0 mm
10:00 AM 51.3°F10.7°C 37.4°F3.0°C 59% Calm Calm 2.0 mph3.2 kmh 30.16 in1021.3 mb 0.00 in0.0 mm 0.00 in0.0 mm 0.00 in0.0 mm
09:45 AM 50.8°F10.4°C 37.4°F3.0°C 60% 3.0 mph E4.8 kmh E 10.0 mph16.1 kmh 30.18 in1022.0 mb 0.00 in0.0 mm 0.00 in0.0 mm 0.00 in0.0 mm
09:30 AM 50.6°F10.3°C 36.8°F2.7°C 59% Calm Calm 4.0 mph6.4 kmh 30.18 in1022.0 mb 0.00 in0.0 mm 0.00 in0.0 mm 0.00 in0.0 mm
09:15 AM 50.2°F10.1°C 37.3°F2.9°C 61% Calm Calm 2.0 mph3.2 kmh 30.17 in1021.7 mb 0.00 in0.0 mm 0.00 in0.0 mm 0.00 in0.0 mm
09:00 AM 49.6°F9.8°C 37.1°F2.8°C 62% Calm Calm -- 30.17 in1021.7 mb 0.00 in0.0 mm 0.00 in0.0 mm 0.00 in0.0 mm
08:45 AM 49.1°F9.5°C 36.6°F2.6°C 62% Calm Calm -- 30.16 in1021.3 mb 0.00 in0.0 mm 0.00 in0.0 mm 0.00 in0.0 mm
08:30 AM 48.7°F9.3°C 36.3°F2.4°C 62% Calm Calm 2.0 mph3.2 kmh 30.16 in1021.3 mb 0.00 in0.0 mm 0.00 in0.0 mm 0.00 in0.0 mm
08:15 AM 48.6°F9.2°C 35.7°F2.1°C 61% Calm Calm 2.0 mph3.2 kmh 30.16 in1021.3 mb 0.00 in0.0 mm 0.00 in0.0 mm 0.00 in0.0 mm
08:00 AM 48.5°F9.2°C 35.7°F2.1°C 61% Calm Calm -- 30.16 in1021.3 mb 0.00 in0.0 mm 0.00 in0.0 mm 0.00 in0.0 mm
07:45 AM 48.3°F9.1°C 35.5°F1.9°C 61% Calm Calm 4.0 mph6.4 kmh 30.15 in1021.0 mb 0.00 in0.0 mm 0.00 in0.0 mm 0.00 in0.0 mm
07:30 AM 48.2°F9.0°C 34.5°F1.4°C 59% 3.0 mph E4.8 kmh E 6.0 mph9.7 kmh 30.16 in1021.3 mb 0.00 in0.0 mm 0.00 in0.0 mm 0.00 in0.0 mm
07:15 AM 48.0°F8.9°C 34.3°F1.3°C 59% 3.0 mph E4.8 kmh E 8.0 mph12.9 kmh 30.15 in1021.0 mb 0.00 in0.0 mm 0.00 in0.0 mm 0.00 in0.0 mm
07:00 AM 47.6°F8.7°C 34.4°F1.3°C 60% Calm Calm 4.0 mph6.4 kmh 30.15 in1021.0 mb 0.00 in0.0 mm 0.00 in0.0 mm 0.00 in0.0 mm
06:45 AM 47.5°F8.6°C 34.7°F1.5°C 61% Calm Calm 4.0 mph6.4 kmh 30.16 in1021.3 mb 0.00 in0.0 mm 0.00 in0.0 mm 0.00 in0.0 mm
06:30 AM 47.4°F8.6°C 34.2°F1.2°C 60% Calm Calm 8.0 mph12.9 kmh 30.15 in1021.0 mb 0.00 in0.0 mm 0.00 in0.0 mm 0.00 in0.0 mm
06:15 AM 47.4°F8.6°C 33.8°F1.0°C 59% Calm Calm 8.0 mph12.9 kmh 30.15 in1021.0 mb 0.00 in0.0 mm 0.00 in0.0 mm 0.00 in0.0 mm
06:00 AM 47.4°F8.6°C 33.8°F1.0°C 59% 3.0 mph E4.8 kmh E 8.0 mph12.9 kmh 30.15 in1021.0 mb 0.00 in0.0 mm 0.00 in0.0 mm 0.00 in0.0 mm
05:45 AM 47.3°F8.5°C 33.7°F0.9°C 59% Calm Calm 6.0 mph9.7 kmh 30.15 in1021.0 mb 0.00 in0.0 mm 0.00 in0.0 mm 0.00 in0.0 mm
05:30 AM 47.3°F8.5°C 33.7°F0.9°C 59% Calm Calm 4.0 mph6.4 kmh 30.15 in1021.0 mb 0.00 in0.0 mm 0.00 in0.0 mm 0.00 in0.0 mm
05:15 AM 47.3°F8.5°C 33.7°F0.9°C 59% Calm Calm 4.0 mph6.4 kmh 30.16 in1021.3 mb 0.00 in0.0 mm 0.00 in0.0 mm 0.00 in0.0 mm
05:00 AM 47.2°F8.4°C 33.6°F0.9°C 59% Calm Calm 2.0 mph3.2 kmh 30.16 in1021.3 mb 0.00 in0.0 mm 0.00 in0.0 mm 0.00 in0.0 mm
04:45 AM 47.6°F8.7°C 33.5°F0.8°C 58% Calm Calm 4.0 mph6.4 kmh 30.15 in1021.0 mb 0.00 in0.0 mm 0.00 in0.0 mm 0.00 in0.0 mm
04:30 AM 47.9°F8.8°C 33.4°F0.8°C 57% Calm Calm 8.0 mph12.9 kmh 30.15 in1021.0 mb 0.00 in0.0 mm 0.00 in0.0 mm 0.00 in0.0 mm
04:15 AM 48.0°F8.9°C 33.5°F0.8°C 57% Calm Calm 4.0 mph6.4 kmh 30.15 in1021.0 mb 0.00 in0.0 mm 0.00 in0.0 mm 0.00 in0.0 mm
04:00 AM 47.9°F8.8°C 32.9°F0.5°C 56% Calm Calm 2.0 mph3.2 kmh 30.15 in1021.0 mb 0.00 in0.0 mm 0.00 in0.0 mm 0.00 in0.0 mm
03:45 AM 48.3°F9.1°C 32.9°F0.5°C 55% Calm Calm 2.0 mph3.2 kmh 30.15 in1021.0 mb 0.00 in0.0 mm 0.00 in0.0 mm 0.00 in0.0 mm
03:30 AM 48.5°F9.2°C 32.6°F0.3°C 54% Calm Calm 4.0 mph6.4 kmh 30.15 in1021.0 mb 0.00 in0.0 mm 0.00 in0.0 mm 0.00 in0.0 mm
03:15 AM 48.8°F9.3°C 32.4°F0.2°C 53% Calm Calm 2.0 mph3.2 kmh 30.16 in1021.3 mb 0.00 in0.0 mm 0.00 in0.0 mm 0.00 in0.0 mm
03:00 AM 48.8°F9.3°C 32.9°F0.5°C 54% Calm Calm 4.0 mph6.4 kmh 30.16 in1021.3 mb 0.00 in0.0 mm 0.00 in0.0 mm 0.00 in0.0 mm
02:45 AM 48.8°F9.3°C 32.9°F0.5°C 54% Calm Calm 4.0 mph6.4 kmh 30.17 in1021.7 mb 0.00 in0.0 mm 0.00 in0.0 mm 0.00 in0.0 mm
02:30 AM 48.5°F9.2°C 32.6°F0.3°C 54% Calm Calm 2.0 mph3.2 kmh 30.17 in1021.7 mb 0.00 in0.0 mm 0.00 in0.0 mm 0.00 in0.0 mm
02:15 AM 48.7°F9.3°C 32.3°F0.2°C 53% Calm Calm 4.0 mph6.4 kmh 30.18 in1022.0 mb 0.00 in0.0 mm 0.00 in0.0 mm 0.00 in0.0 mm
02:00 AM 48.7°F9.3°C 32.3°F0.2°C 53% Calm Calm 6.0 mph9.7 kmh 30.18 in1022.0 mb 0.00 in0.0 mm 0.00 in0.0 mm 0.00 in0.0 mm
01:45 AM 48.4°F9.1°C 32.0°F0.0°C 53% Calm Calm 4.0 mph6.4 kmh 30.18 in1022.0 mb 0.00 in0.0 mm 0.00 in0.0 mm 0.00 in0.0 mm
01:30 AM 48.7°F9.3°C 32.3°F0.2°C 53% Calm Calm 4.0 mph6.4 kmh 30.18 in1022.0 mb 0.00 in0.0 mm 0.00 in0.0 mm 0.00 in0.0 mm
01:15 AM 48.9°F9.4°C 32.5°F0.3°C 53% Calm Calm 2.0 mph3.2 kmh 30.20 in1022.7 mb 0.00 in0.0 mm 0.00 in0.0 mm 0.00 in0.0 mm
01:00 AM 48.9°F9.4°C 31.5°F-0.3°C 51% Calm Calm 10.0 mph16.1 kmh 30.19 in1022.4 mb 0.00 in0.0 mm 0.00 in0.0 mm 0.00 in0.0 mm
12:45 AM 49.1°F9.5°C 31.7°F-0.2°C 51% Calm Calm 4.0 mph6.4 kmh 30.19 in1022.4 mb 0.00 in0.0 mm 0.00 in0.0 mm 0.00 in0.0 mm
12:30 AM 49.4°F9.7°C 32.0°F0.0°C 51% Calm Calm 4.0 mph6.4 kmh 30.19 in1022.4 mb 0.00 in0.0 mm 0.00 in0.0 mm 0.00 in0.0 mm
12:15 AM 49.4°F9.7°C 31.5°F-0.3°C 50% 3.0 mph E4.8 kmh E 10.0 mph16.1 kmh 30.19 in1022.4 mb 0.00 in0.0 mm 0.00 in0.0 mm 0.00 in0.0 mm
12:00 AM 49.6°F9.8°C 32.2°F0.1°C 51% Calm Calm 6.0 mph9.7 kmh 30.20 in1022.7 mb 0.00 in0.0 mm 0.00 in0.0 mm 0.00 in0.0 mm